Home > Products > Valid Products > TAF

000
FTUS43 KABR 310500
TAFMBG
TAF
KMBG 310530Z 3106/0106 VRB05KT P6SM SKC
     FM311700 15012KT P6SM SKC=



000
FTUS43 KABR 310500
TAFPIR
TAF
KPIR 310530Z 3106/0106 VRB05KT P6SM SKC
     FM311700 13011KT P6SM SKC=



000
FTUS43 KABR 310500
TAFATY
TAF
KATY 310530Z 3106/0106 VRB05KT P6SM SKC
     FM311900 19010KT P6SM SKC=



000
FTUS43 KABR 310500
TAFABR
TAF
KABR 310530Z 3106/0106 VRB05KT P6SM SKC
     FM311700 16010KT P6SM SKC=



000
FTUS43 KABR 310500
TAFMBG
TAF
KMBG 310530Z 3106/0106 VRB05KT P6SM SKC
     FM311700 15012KT P6SM SKC=



000
FTUS43 KABR 310500
TAFABR
TAF
KABR 310530Z 3106/0106 VRB05KT P6SM SKC
     FM311700 16010KT P6SM SKC=



000
FTUS43 KABR 310500
TAFATY
TAF
KATY 310530Z 3106/0106 VRB05KT P6SM SKC
     FM311900 19010KT P6SM SKC=



000
FTUS43 KABR 310500
TAFPIR
TAF
KPIR 310530Z 3106/0106 VRB05KT P6SM SKC
     FM311700 13011KT P6SM SKC=



000
FTUS43 KABR 310000 AAA
TAFMBG
TAF AMD
KMBG 310059Z 3101/3124 VRB05KT P6SM SKC
     FM311700 14015KT P6SM SKC=



000
FTUS43 KABR 310000 AAA
TAFPIR
TAF AMD
KPIR 310059Z 3101/3124 35008KT P6SM SKC
     FM310300 VRB04KT P6SM BKN250
     FM311900 13011KT P6SM SKC=



000
FTUS43 KABR 310000 AAA
TAFPIR
TAF AMD
KPIR 310059Z 3101/3124 35008KT P6SM SKC
     FM310300 VRB04KT P6SM BKN250
     FM311900 13011KT P6SM SKC=



000
FTUS43 KABR 310000 AAA
TAFMBG
TAF AMD
KMBG 310059Z 3101/3124 VRB05KT P6SM SKC
     FM311700 14015KT P6SM SKC=



000
FTUS43 KABR 310000 AAA
TAFABR
TAF AMD
KABR 310058Z 3101/3124 VRB05KT P6SM SKC=



000
FTUS43 KABR 310000 AAA
TAFATY
TAF AMD
KATY 310058Z 3101/3124 33012KT P6SM SKC
     FM310300 VRB04KT P6SM SKC=



000
FTUS43 KABR 310000 AAA
TAFABR
TAF AMD
KABR 310058Z 3101/3124 VRB05KT P6SM SKC=



000
FTUS43 KABR 310000 AAA
TAFATY
TAF AMD
KATY 310058Z 3101/3124 33012KT P6SM SKC
     FM310300 VRB04KT P6SM SKC=



000
FTUS43 KABR 302300
TAFPIR
TAF
KPIR 302326Z 3100/3124 32015G25KT P6SM SKC
     FM310300 VRB04KT P6SM BKN250
     FM311900 13011KT P6SM SKC=



000
FTUS43 KABR 302300
TAFATY
TAF
KATY 302326Z 3100/3124 33020G27KT P6SM SKC
     FM310300 VRB04KT P6SM SKC=



000
FTUS43 KABR 302300
TAFABR
TAF
KABR 302326Z 3100/3124 34015G25KT P6SM SKC
     FM310300 VRB04KT P6SM SKC=



000
FTUS43 KABR 302300
TAFMBG
TAF
KMBG 302326Z 3100/3124 34015KT P6SM SKC
     FM310300 VRB04KT P6SM SKC
     FM311700 14015KT P6SM SKC=



000
FTUS43 KABR 302300 AAA
TAFMBG
TAF AMD
KMBG 302312Z 3023/3118 33016KT P6SM SKC
     FM310000 34012KT P6SM SKC
     FM310300 VRB04KT P6SM SKC=



000
FTUS43 KABR 302300 AAA
TAFMBG
TAF AMD
KMBG 302312Z 3023/3118 33016KT P6SM SKC
     FM310000 34012KT P6SM SKC
     FM310300 VRB04KT P6SM SKC=



000
FTUS43 KABR 302100 AAA
TAFABR
TAF AMD
KABR 302107Z 3021/3118 32018G28KT P6SM SKC
     FM310000 33011KT P6SM SKC
     FM310300 VRB04KT P6SM SKC=



000
FTUS43 KABR 302100 AAA
TAFATY
TAF AMD
KATY 302107Z 3021/3118 32020G30KT P6SM SKC
     FM310000 33013KT P6SM SKC
     FM310300 VRB04KT P6SM SKC=



000
FTUS43 KABR 302100 AAA
TAFABR
TAF AMD
KABR 302107Z 3021/3118 32018G28KT P6SM SKC
     FM310000 33011KT P6SM SKC
     FM310300 VRB04KT P6SM SKC=



000
FTUS43 KABR 301700
TAFMBG
TAF
KMBG 301727Z 3018/3118 31019G29KT P6SM SKC
     FM310000 34012KT P6SM SKC
     FM310300 VRB04KT P6SM SKC=



000
FTUS43 KABR 301700
TAFATY
TAF
KATY 301727Z 3018/3118 28017G25KT P6SM SKC
     FM310000 33013KT P6SM SKC
     FM310300 VRB04KT P6SM SKC=



000
FTUS43 KABR 301700
TAFATY
TAF
KATY 301727Z 3018/3118 28017G25KT P6SM SKC
     FM310000 33013KT P6SM SKC
     FM310300 VRB04KT P6SM SKC=



000
FTUS43 KABR 301700
TAFMBG
TAF
KMBG 301727Z 3018/3118 31019G29KT P6SM SKC
     FM310000 34012KT P6SM SKC
     FM310300 VRB04KT P6SM SKC=



000
FTUS43 KABR 301700
TAFPIR
TAF
KPIR 301727Z 3018/3118 31019G29KT P6SM SKC
     FM310000 33013KT P6SM SKC
     FM310300 VRB04KT P6SM BKN250=



000
FTUS43 KABR 301700
TAFABR
TAF
KABR 301727Z 3018/3118 30018G28KT P6SM SKC
     FM310000 33011KT P6SM SKC
     FM310300 VRB04KT P6SM SKC=



000
FTUS43 KABR 301700
TAFPIR
TAF
KPIR 301727Z 3018/3118 31019G29KT P6SM SKC
     FM310000 33013KT P6SM SKC
     FM310300 VRB04KT P6SM BKN250=



000
FTUS43 KABR 301700
TAFABR
TAF
KABR 301727Z 3018/3118 30018G28KT P6SM SKC
     FM310000 33011KT P6SM SKC
     FM310300 VRB04KT P6SM SKC=



000
FTUS43 KABR 301700 AAA
TAFMBG
TAF AMD
KMBG 301722Z 3017/3112 31015KT P6SM SKC
     FM310100 VRB04KT P6SM SKC=



000
FTUS43 KABR 301700 AAA
TAFATY
TAF AMD
KATY 301722Z 3017/3112 26013KT P6SM SKC
     FM310100 32010KT P6SM SKC=



000
FTUS43 KABR 301700 AAA
TAFATY
TAF AMD
KATY 301722Z 3017/3112 26013KT P6SM SKC
     FM310100 32010KT P6SM SKC=



000
FTUS43 KABR 301700 AAA
TAFABR
TAF AMD
KABR 301721Z 3017/3112 30016G25KT P6SM SKC
     FM310100 32005KT P6SM SKC=



000
FTUS43 KABR 301700 AAA
TAFABR
TAF AMD
KABR 301721Z 3017/3112 30016G25KT P6SM SKC
     FM310100 32005KT P6SM SKC=



000
FTUS43 KABR 301100
TAFMBG
TAF
KMBG 301129Z 3012/3112 20009KT P6SM SCT250
     FM301600 31018G27KT P6SM SCT250
     FM310100 VRB04KT P6SM SKC=



000
FTUS43 KABR 301100
TAFABR
TAF
KABR 301129Z 3012/3112 21010KT P6SM SCT250
     FM301600 31020G30KT P6SM SCT250
     FM310100 32005KT P6SM SKC=



000
FTUS43 KABR 301100
TAFPIR
TAF
KPIR 301129Z 3012/3112 22009KT P6SM SCT250
     FM301600 31020G30KT P6SM SCT250
     FM310100 VRB04KT P6SM SKC=



000
FTUS43 KABR 301100
TAFATY
TAF
KATY 301129Z 3012/3112 21009KT P6SM SCT250
     FM301700 29020G30KT P6SM SCT250
     FM310100 32010KT P6SM SKC=



000
FTUS43 KABR 301100
TAFPIR
TAF
KPIR 301129Z 3012/3112 22009KT P6SM SCT250
     FM301600 31020G30KT P6SM SCT250
     FM310100 VRB04KT P6SM SKC=



000
FTUS43 KABR 301100
TAFMBG
TAF
KMBG 301129Z 3012/3112 20009KT P6SM SCT250
     FM301600 31018G27KT P6SM SCT250
     FM310100 VRB04KT P6SM SKC=



000
FTUS43 KABR 301100
TAFABR
TAF
KABR 301129Z 3012/3112 21010KT P6SM SCT250
     FM301600 31020G30KT P6SM SCT250
     FM310100 32005KT P6SM SKC=



000
FTUS43 KABR 301100
TAFATY
TAF
KATY 301129Z 3012/3112 21009KT P6SM SCT250
     FM301700 29020G30KT P6SM SCT250
     FM310100 32010KT P6SM SKC=



000
FTUS43 KABR 300500
TAFMBG
TAF
KMBG 300523Z 3006/3106 18006KT P6SM SCT250
     FM301600 31017G26KT P6SM SCT250
     FM310100 VRB05KT P6SM SKC=



000
FTUS43 KABR 300500
TAFABR
TAF
KABR 300523Z 3006/3106 22006KT P6SM SCT250
     FM301600 31017G25KT P6SM SCT250
     FM310100 VRB05KT P6SM SKC=



000
FTUS43 KABR 300500
TAFPIR
TAF
KPIR 300523Z 3006/3106 20006KT P6SM SCT250
     FM301600 31018G27KT P6SM SCT250
     FM310100 VRB05KT P6SM SKC=



000
FTUS43 KABR 300500
TAFPIR
TAF
KPIR 300523Z 3006/3106 20006KT P6SM SCT250
     FM301600 31018G27KT P6SM SCT250
     FM310100 VRB05KT P6SM SKC=



000
FTUS43 KABR 300500
TAFMBG
TAF
KMBG 300523Z 3006/3106 18006KT P6SM SCT250
     FM301600 31017G26KT P6SM SCT250
     FM310100 VRB05KT P6SM SKC=



000
FTUS43 KABR 300500
TAFATY
TAF
KATY 300523Z 3006/3106 21006KT P6SM SCT250
     FM301600 31018G26KT P6SM SCT250
     FM310100 VRB05KT P6SM SKC=



000
FTUS43 KABR 300500
TAFABR
TAF
KABR 300523Z 3006/3106 22006KT P6SM SCT250
     FM301600 31017G25KT P6SM SCT250
     FM310100 VRB05KT P6SM SKC=



000
FTUS43 KABR 300500
TAFATY
TAF
KATY 300523Z 3006/3106 21006KT P6SM SCT250
     FM301600 31018G26KT P6SM SCT250
     FM310100 VRB05KT P6SM SKC=



000
FTUS43 KABR 292300
TAFATY
TAF
KATY 292325Z 3000/3024 33016KT P6SM SKC
     FM300200 VRB05KT P6SM SKC
     FM301600 31016G25KT P6SM SCT250=



000
FTUS43 KABR 292300
TAFPIR
TAF
KPIR 292325Z 3000/3024 29012KT P6SM SKC
     FM300200 VRB05KT P6SM SCT250
     FM301600 31017G26KT P6SM SCT250=



000
FTUS43 KABR 292300
TAFMBG
TAF
KMBG 292325Z 3000/3024 30011KT P6SM SKC
     FM300200 VRB05KT P6SM SCT250
     FM301600 32016G24KT P6SM SCT250=



000
FTUS43 KABR 292300
TAFABR
TAF
KABR 292325Z 3000/3024 31012KT P6SM SKC
     FM300200 VRB05KT P6SM SKC
     FM301600 31016G24KT P6SM SCT250=



000
FTUS43 KABR 292000 AAA
TAFPIR
TAF AMD
KPIR 292044Z 2921/3018 30015G25KT P6SM SKC
     FM300000 30010KT P6SM SKC
     FM300300 23004KT P6SM BKN250=



000
FTUS43 KABR 292000 AAA
TAFPIR
TAF AMD
KPIR 292044Z 2921/3018 30015G25KT P6SM SKC
     FM300000 30010KT P6SM SKC
     FM300300 23004KT P6SM BKN250=



000
FTUS43 KABR 291700
TAFPIR
TAF
KPIR 291720Z 2918/3018 33021G27KT P6SM SKC
     FM292100 31017KT P6SM SKC
     FM300000 30010KT P6SM SKC
     FM300300 23004KT P6SM BKN250=



000
FTUS43 KABR 291700
TAFABR
TAF
KABR 291720Z 2918/3018 33020G35KT P6SM SKC
     FM292300 32015KT P6SM SKC
     FM300300 23004KT P6SM SCT250=



000
FTUS43 KABR 291700
TAFMBG
TAF
KMBG 291720Z 2918/3018 33024G30KT P6SM SKC
     FM292100 31016KT P6SM SKC
     FM300000 31010KT P6SM SKC
     FM300300 VRB04KT P6SM BKN250=



000
FTUS43 KABR 291700
TAFATY
TAF
KATY 291720Z 2918/3018 32027G37KT P6SM FEW026
     FM292100 33025G34KT P6SM SKC
     FM300000 32015KT P6SM SKC
     FM300300 23004KT P6SM SCT250=



000
FTUS43 KABR 291700
TAFATY
TAF
KATY 291720Z 2918/3018 32027G37KT P6SM FEW026
     FM292100 33025G34KT P6SM SKC
     FM300000 32015KT P6SM SKC
     FM300300 23004KT P6SM SCT250=



000
FTUS43 KABR 291700
TAFABR
TAF
KABR 291720Z 2918/3018 33020G35KT P6SM SKC
     FM292300 32015KT P6SM SKC
     FM300300 23004KT P6SM SCT250=



000
FTUS43 KABR 291700
TAFMBG
TAF
KMBG 291720Z 2918/3018 33024G30KT P6SM SKC
     FM292100 31016KT P6SM SKC
     FM300000 31010KT P6SM SKC
     FM300300 VRB04KT P6SM BKN250=



000
FTUS43 KABR 291700
TAFPIR
TAF
KPIR 291720Z 2918/3018 33021G27KT P6SM SKC
     FM292100 31017KT P6SM SKC
     FM300000 30010KT P6SM SKC
     FM300300 23004KT P6SM BKN250=



000
FTUS43 KABR 291600 AAA
TAFPIR
TAF AMD
KPIR 291659Z 2917/3012 33021G27KT P6SM SKC
     FM292100 31016G25KT P6SM SKC
     FM300100 VRB03KT P6SM SKC=



000
FTUS43 KABR 291600 AAA
TAFPIR
TAF AMD
KPIR 291659Z 2917/3012 33021G27KT P6SM SKC
     FM292100 31016G25KT P6SM SKC
     FM300100 VRB03KT P6SM SKC=



000
FTUS43 KABR 291600 AAA
TAFATY
TAF AMD
KATY 291653Z 2917/3012 33029G35KT P6SM SCT025
     FM291900 33024G35KT P6SM SKC
     FM300100 VRB04KT P6SM SKC=



000
FTUS43 KABR 291500 AAB
TAFABR
TAF AMD
KABR 291516Z 2915/3012 33027G35KT P6SM SCT026
     FM291700 32023G34KT P6SM SKC
     FM300100 VRB04KT P6SM SKC=



000
FTUS43 KABR 291400 AAB
TAFMBG
TAF AMD
KMBG 291431Z 2915/3012 33023G31KT P6SM FEW030
     FM292100 32014KT P6SM SKC
     FM300100 VRB04KT P6SM SKC=



000
FTUS43 KABR 291400 AAB
TAFMBG
TAF AMD
KMBG 291431Z 2915/3012 33023G31KT P6SM FEW030
     FM292100 32014KT P6SM SKC
     FM300100 VRB04KT P6SM SKC=



000
FTUS43 KABR 291300 AAA
TAFABR
TAF AMD
KABR 291346Z 2914/3012 32025G33KT P6SM SCT015 OVC023
     FM291700 32023G34KT P6SM SKC
     FM300100 VRB04KT P6SM SKC=



000
FTUS43 KABR 291300 AAA
TAFMBG
TAF AMD
KMBG 291317Z 2913/3012 33027G38KT P6SM OVC021
     FM291500 32025G35KT P6SM SKC
     FM292100 32014KT P6SM SKC
     FM300100 VRB04KT P6SM SKC=



000
FTUS43 KABR 291300 AAA
TAFMBG
TAF AMD
KMBG 291317Z 2913/3012 33027G38KT P6SM OVC021
     FM291500 32025G35KT P6SM SKC
     FM292100 32014KT P6SM SKC
     FM300100 VRB04KT P6SM SKC=



000
FTUS43 KABR 291200 AAA
TAFABR
TAF AMD
KABR 291228Z 2912/3012 30024G34KT P6SM -SHRA OVC015
      TEMPO 2912/2914 31034G45KT OVC025
     FM291400 31024G35KT P6SM OVC020
     FM291700 32023G34KT P6SM SKC
     FM300100 VRB04KT P6SM SKC=



000
FTUS43 KABR 291200 AAA
TAFABR
TAF AMD
KABR 291228Z 2912/3012 30024G34KT P6SM -SHRA OVC015
      TEMPO 2912/2914 31034G45KT OVC025
     FM291400 31024G35KT P6SM OVC020
     FM291700 32023G34KT P6SM SKC
     FM300100 VRB04KT P6SM SKC=



000
FTUS43 KABR 291200 CCA
TAFPIR
TAF COR
KPIR 291226Z 2912/3012 32032G44KT P6SM OVC020
     FM291400 32029G37KT P6SM SKC
     FM292100 31016G25KT P6SM SKC
     FM300100 VRB03KT P6SM SKC=



000
FTUS43 KABR 291200 CCA
TAFPIR
TAF COR
KPIR 291226Z 2912/3012 32032G44KT P6SM OVC020
     FM291400 32029G37KT P6SM SKC
     FM292100 31016G25KT P6SM SKC
     FM300100 VRB03KT P6SM SKC=



000
FTUS43 KABR 291100 CCA
TAFATY
TAF COR
KATY 291155Z 2912/3012 29014G23KT P6SM SCT050
     FM291300 30020G30KT P6SM -SHRA OVC035
      TEMPO 2913/2915 30034G45KT 5SM SHRA OVC015
     FM291500 30024G35KT P6SM OVC020
     FM291900 33024G35KT P6SM SKC
     FM300100 VRB04KT P6SM SKC=



000
FTUS43 KABR 291100 CCA
TAFATY
TAF COR
KATY 291155Z 2912/3012 29014G23KT P6SM SCT050
     FM291300 30020G30KT P6SM -SHRA OVC035
      TEMPO 2913/2915 30034G45KT 5SM SHRA OVC015
     FM291500 30024G35KT P6SM OVC020
     FM291900 33024G35KT P6SM SKC
     FM300100 VRB04KT P6SM SKC=



000
FTUS43 KABR 291100 CCA
TAFABR
TAF COR
KABR 291152Z 2912/3012 30024G34KT P6SM -SHRA OVC030
      TEMPO 2912/2914 31034G45KT OVC015
     FM291400 31024G35KT P6SM OVC020
     FM291700 32023G34KT P6SM SKC
     FM300100 VRB04KT P6SM SKC=



000
FTUS43 KABR 291100 CCA
TAFABR
TAF COR
KABR 291152Z 2912/3012 30024G34KT P6SM -SHRA OVC030
      TEMPO 2912/2914 31034G45KT OVC015
     FM291400 31024G35KT P6SM OVC020
     FM291700 32023G34KT P6SM SKC
     FM300100 VRB04KT P6SM SKC=



000
FTUS43 KABR 291100
TAFMBG
TAF
KMBG 291123Z 2912/3012 32032G42KT P6SM OVC015
     FM291500 32025G35KT P6SM SKC
     FM292100 32014KT P6SM SKC
     FM300100 VRB04KT P6SM SKC=



000
FTUS43 KABR 291100
TAFATY
TAF
KATY 291123Z 2912/3012 29014G23KT P6SM SCT050
     FM291400 30020G30KT P6SM -SHRA OVC025
      TEMPO 2914/2916 30034G47KT 3SM SHRA OVC015
     FM291600 30024G35KT P6SM OVC020
     FM291900 33024G35KT P6SM SKC
     FM300100 VRB04KT P6SM SKC=



000
FTUS43 KABR 291100
TAFABR
TAF
KABR 291123Z 2912/3012 30024G34KT P6SM -SHRA OVC030
      TEMPO 2912/2914 31034G47KT 3SM SHRA OVC015
     FM291400 31024G35KT P6SM OVC020
     FM291700 32023G34KT P6SM SKC
     FM300100 VRB04KT P6SM SKC=



000
FTUS43 KABR 291100
TAFPIR
TAF
KPIR 291123Z 2912/3012 32032G44KT P6SM OVC030
     FM291400 32029G37KT P6SM SKC
     FM292100 31016G25KT P6SM SKC
     FM300100 VRB03KT P6SM SKC=



000
FTUS43 KABR 291100
TAFPIR
TAF
KPIR 291123Z 2912/3012 32032G44KT P6SM OVC030
     FM291400 32029G37KT P6SM SKC
     FM292100 31016G25KT P6SM SKC
     FM300100 VRB03KT P6SM SKC=



000
FTUS43 KABR 291100
TAFATY
TAF
KATY 291123Z 2912/3012 29014G23KT P6SM SCT050
     FM291400 30020G30KT P6SM -SHRA OVC025
      TEMPO 2914/2916 30034G47KT 3SM SHRA OVC015
     FM291600 30024G35KT P6SM OVC020
     FM291900 33024G35KT P6SM SKC
     FM300100 VRB04KT P6SM SKC=



000
FTUS43 KABR 291100
TAFABR
TAF
KABR 291123Z 2912/3012 30024G34KT P6SM -SHRA OVC030
      TEMPO 2912/2914 31034G47KT 3SM SHRA OVC015
     FM291400 31024G35KT P6SM OVC020
     FM291700 32023G34KT P6SM SKC
     FM300100 VRB04KT P6SM SKC=



000
FTUS43 KABR 291100
TAFMBG
TAF
KMBG 291123Z 2912/3012 32032G42KT P6SM OVC015
     FM291500 32025G35KT P6SM SKC
     FM292100 32014KT P6SM SKC
     FM300100 VRB04KT P6SM SKC=



000
FTUS43 KABR 290900 AAC
TAFMBG
TAF AMD
KMBG 290916Z 2909/3006 30015G25KT P6SM BKN060
     FM291000 30020G30KT 5SM RA OVC025
     FM291300 32030G40KT P6SM SKC
     FM292100 32014KT P6SM SKC
     FM300100 VRB05KT P6SM SKC=



000
FTUS43 KABR 290900 AAC
TAFMBG
TAF AMD
KMBG 290916Z 2909/3006 30015G25KT P6SM BKN060
     FM291000 30020G30KT 5SM RA OVC025
     FM291300 32030G40KT P6SM SKC
     FM292100 32014KT P6SM SKC
     FM300100 VRB05KT P6SM SKC=



000
FTUS43 KABR 290900 AAA
TAFABR
TAF AMD
KABR 290914Z 2909/3006 25011KT P6SM SCT070
     FM291100 29014KT 5SM RA OVC030
     FM291300 30024G32KT P6SM OVC040
     FM291500 32030G42KT P6SM SCT050
     FM291700 33023G34KT P6SM SKC
     FM300100 VRB05KT P6SM SKC=



000
FTUS43 KABR 290900 AAA
TAFABR
TAF AMD
KABR 290914Z 2909/3006 25011KT P6SM SCT070
     FM291100 29014KT 5SM RA OVC030
     FM291300 30024G32KT P6SM OVC040
     FM291500 32030G42KT P6SM SCT050
     FM291700 33023G34KT P6SM SKC
     FM300100 VRB05KT P6SM SKC=



000
FTUS43 KABR 290800 AAB
TAFPIR
TAF AMD
KPIR 290821Z 2908/3006 31014G24KT P6SM SCT050
     FM291000 32030G44KT P6SM BKN035
     FM291400 32029G37KT P6SM SKC
     FM292100 31016G25KT P6SM SKC
     FM300100 VRB05KT P6SM SKC=



000
FTUS43 KABR 290800 AAB
TAFMBG
TAF AMD
KMBG 290820Z 2908/3006 30015KT P6SM BKN090
     FM290900 30020G30KT P6SM -SHRA OVC025
     FM291300 32022G31KT P6SM SKC
     FM292100 32014KT P6SM SKC
     FM300100 VRB05KT P6SM SKC=



000
FTUS43 KABR 290600 AAA
TAFMBG
TAF AMD
KMBG 290629Z 2906/3006 31015G25KT P6SM BKN090
     FM290900 33032G44KT P6SM -SHRA BKN050
     FM291300 32022G31KT P6SM SKC
     FM292100 32014KT P6SM SKC
     FM300100 VRB05KT P6SM SKC=



000
FTUS43 KABR 290600 AAA
TAFMBG
TAF AMD
KMBG 290629Z 2906/3006 31015G25KT P6SM BKN090
     FM290900 33032G44KT P6SM -SHRA BKN050
     FM291300 32022G31KT P6SM SKC
     FM292100 32014KT P6SM SKC
     FM300100 VRB05KT P6SM SKC=



000
FTUS43 KABR 290600 AAA
TAFPIR
TAF AMD
KPIR 290627Z 2906/3006 31017G26KT P6SM SCT050
     FM291000 32034G45KT P6SM SCT050
     FM291400 32029G37KT P6SM SKC
     FM292100 31016G25KT P6SM SKC
     FM300100 VRB05KT P6SM SKC=



000
FTUS43 KABR 290600 AAA
TAFPIR
TAF AMD
KPIR 290627Z 2906/3006 31017G26KT P6SM SCT050
     FM291000 32034G45KT P6SM SCT050
     FM291400 32029G37KT P6SM SKC
     FM292100 31016G25KT P6SM SKC
     FM300100 VRB05KT P6SM SKC=



000
FTUS43 KABR 290600 AAA
TAFATY
TAF AMD
KATY 290624Z 2906/3006 18015G25KT P6SM OVC100
     FM291200 23017G28KT P6SM -SHRA OVC040
     FM291500 32027G40KT P6SM SCT050
     FM292000 32019G26KT P6SM SKC
     FM300100 VRB05KT P6SM SKC=



000
FTUS43 KABR 290600 AAA
TAFATY
TAF AMD
KATY 290624Z 2906/3006 18015G25KT P6SM OVC100
     FM291200 23017G28KT P6SM -SHRA OVC040
     FM291500 32027G40KT P6SM SCT050
     FM292000 32019G26KT P6SM SKC
     FM300100 VRB05KT P6SM SKC=



000
FTUS43 KABR 290600 AAA
TAFABR
TAF AMD
KABR 290622Z 2906/3006 20011KT P6SM OVC040
     FM290900 29014KT P6SM -SHRA OVC040
     FM291200 30024G32KT P6SM OVC040
     FM291400 32030G42KT P6SM SCT050
     FM291700 33023G34KT P6SM SKC
     FM300100 VRB05KT P6SM SKC=



000
FTUS43 KABR 290600 AAA
TAFABR
TAF AMD
KABR 290622Z 2906/3006 20011KT P6SM OVC040
     FM290900 29014KT P6SM -SHRA OVC040
     FM291200 30024G32KT P6SM OVC040
     FM291400 32030G42KT P6SM SCT050
     FM291700 33023G34KT P6SM SKC
     FM300100 VRB05KT P6SM SKC=



000
FTUS43 KABR 290500
TAFATY
TAF
KATY 290522Z 2906/3006 18018G27KT P6SM OVC200
     FM290800 23017G28KT P6SM VCSH OVC040
     FM291300 32027G40KT P6SM SCT050
     FM292000 32019G26KT P6SM SKC
     FM300100 VRB05KT P6SM SKC=



000
FTUS43 KABR 290500
TAFPIR
TAF
KPIR 290522Z 2906/3006 32034G45KT P6SM SCT050
     FM291400 32029G37KT P6SM SKC
     FM292100 31016G25KT P6SM SKC
     FM300100 VRB05KT P6SM SKC=



000
FTUS43 KABR 290500
TAFABR
TAF
KABR 290522Z 2906/3006 20011KT P6SM -SHRA OVC070
     FM290700 29014KT P6SM -SHRA OVC060
     FM290800 30024G32KT P6SM OVC040
     FM291100 32030G42KT P6SM SCT050
     FM291700 33023G34KT P6SM SKC
     FM300100 VRB05KT P6SM SKC=



000
FTUS43 KABR 290500
TAFPIR
TAF
KPIR 290522Z 2906/3006 32034G45KT P6SM SCT050
     FM291400 32029G37KT P6SM SKC
     FM292100 31016G25KT P6SM SKC
     FM300100 VRB05KT P6SM SKC=



000
FTUS43 KABR 290500
TAFATY
TAF
KATY 290522Z 2906/3006 18018G27KT P6SM OVC200
     FM290800 23017G28KT P6SM VCSH OVC040
     FM291300 32027G40KT P6SM SCT050
     FM292000 32019G26KT P6SM SKC
     FM300100 VRB05KT P6SM SKC=



000
FTUS43 KABR 290500
TAFABR
TAF
KABR 290522Z 2906/3006 20011KT P6SM -SHRA OVC070
     FM290700 29014KT P6SM -SHRA OVC060
     FM290800 30024G32KT P6SM OVC040
     FM291100 32030G42KT P6SM SCT050
     FM291700 33023G34KT P6SM SKC
     FM300100 VRB05KT P6SM SKC=



000
FTUS43 KABR 290500
TAFMBG
TAF
KMBG 290522Z 2906/3006 31017G25KT P6SM BKN090
     FM290800 33030G40KT P6SM BKN050
     FM291300 32022G31KT P6SM SKC
     FM292100 32014KT P6SM SKC
     FM300100 VRB05KT P6SM SKC=



000
FTUS43 KABR 290500
TAFMBG
TAF
KMBG 290522Z 2906/3006 31017G25KT P6SM BKN090
     FM290800 33030G40KT P6SM BKN050
     FM291300 32022G31KT P6SM SKC
     FM292100 32014KT P6SM SKC
     FM300100 VRB05KT P6SM SKC=



000
FTUS43 KABR 282300
TAFPIR
TAF
KPIR 282323Z 2900/2924 14018G25KT P6SM SKC
     FM290400 30017KT P6SM SCT090
     FM291000 30027G35KT P6SM BKN050
     FM291200 32034G45KT P6SM BKN050
     FM291600 32024G32KT P6SM SKC
     FM292000 31016G25KT P6SM SKC=



000
FTUS43 KABR 282300
TAFABR
TAF
KABR 282323Z 2900/2924 18020G30KT P6SM SKC
     FM290500 16012KT P6SM -SHRA OVC040
     FM291200 32028G40KT P6SM BKN050
     FM291800 33018G26KT P6SM SKC=



000
FTUS43 KABR 282300
TAFMBG
TAF
KMBG 282323Z 2900/2924 16017KT P6SM SCT090
     FM290300 33014KT P6SM -SHRA BKN050
     FM290900 31024G34KT P6SM BKN050
     FM291100 33030G40KT P6SM BKN050
     FM291700 32018G28KT P6SM SKC=



000
FTUS43 KABR 282300
TAFATY
TAF
KATY 282323Z 2900/2924 17020G28KT P6SM SKC
     FM290500 18017KT P6SM -SHRA OVC040
     FM291200 32027G40KT P6SM BKN050
     FM292000 32019G26KT P6SM SKC=



000
FTUS43 KABR 281700
TAFMBG
TAF
KMBG 281720Z 2818/2918 16018G26KT P6SM SKC
     FM290100 15017KT P6SM -SHRA OVC070
     FM290400 33014KT P6SM BKN100
     FM290900 31024G34KT P6SM -SHRA OVC030
     FM291200 33030G40KT P6SM OVC030
     FM291700 32024G32KT P6SM BKN030=



000
FTUS43 KABR 281700
TAFPIR
TAF
KPIR 281720Z 2818/2918 13016KT P6SM SKC
     FM282000 15017G26KT P6SM SCT110
     FM290500 30015KT P6SM BKN090
     FM291000 30029G39KT P6SM BKN030
     FM291200 32034G43KT P6SM BKN030
     FM291700 32026G33KT P6SM SCT030=



000
FTUS43 KABR 281700
TAFABR
TAF
KABR 281720Z 2818/2918 17019G26KT P6SM SKC
     FM290400 16012KT P6SM -SHRA OVC060
     FM290700 23009KT P6SM BKN100
     FM291000 29019G29KT P6SM -SHRA OVC040
     FM291300 32028G38KT P6SM OVC030
     FM291700 32024G34KT P6SM SCT030=



000
FTUS43 KABR 281700
TAFATY
TAF
KATY 281720Z 2818/2918 16016KT P6SM SKC
     FM281900 17020G27KT P6SM SKC
     FM290500 18017KT P6SM -SHRA OVC060
     FM290800 22014KT P6SM BKN100
     FM291200 27019G29KT P6SM -SHRA OVC030
     FM291400 32025G36KT P6SM OVC030=



000
FTUS43 KABR 281700
TAFPIR
TAF
KPIR 281720Z 2818/2918 13016KT P6SM SKC
     FM282000 15017G26KT P6SM SCT110
     FM290500 30015KT P6SM BKN090
     FM291000 30029G39KT P6SM BKN030
     FM291200 32034G43KT P6SM BKN030
     FM291700 32026G33KT P6SM SCT030=



000
FTUS43 KABR 281700
TAFMBG
TAF
KMBG 281720Z 2818/2918 16018G26KT P6SM SKC
     FM290100 15017KT P6SM -SHRA OVC070
     FM290400 33014KT P6SM BKN100
     FM290900 31024G34KT P6SM -SHRA OVC030
     FM291200 33030G40KT P6SM OVC030
     FM291700 32024G32KT P6SM BKN030=



000
FTUS43 KABR 281700
TAFATY
TAF
KATY 281720Z 2818/2918 16016KT P6SM SKC
     FM281900 17020G27KT P6SM SKC
     FM290500 18017KT P6SM -SHRA OVC060
     FM290800 22014KT P6SM BKN100
     FM291200 27019G29KT P6SM -SHRA OVC030
     FM291400 32025G36KT P6SM OVC030=



000
FTUS43 KABR 281700
TAFABR
TAF
KABR 281720Z 2818/2918 17019G26KT P6SM SKC
     FM290400 16012KT P6SM -SHRA OVC060
     FM290700 23009KT P6SM BKN100
     FM291000 29019G29KT P6SM -SHRA OVC040
     FM291300 32028G38KT P6SM OVC030
     FM291700 32024G34KT P6SM SCT030=



000
FTUS43 KABR 281600 AAD
TAFATY
TAF AMD
KATY 281614Z 2816/2912 17015KT P6SM SCT012
     FM281700 17016G23KT P6SM SKC
     FM281800 18023G33KT P6SM SKC
     FM290500 19017KT P6SM -SHRA OVC070
     FM290900 23014KT P6SM BKN100=



000
FTUS43 KABR 281600 AAD
TAFATY
TAF AMD
KATY 281614Z 2816/2912 17015KT P6SM SCT012
     FM281700 17016G23KT P6SM SKC
     FM281800 18023G33KT P6SM SKC
     FM290500 19017KT P6SM -SHRA OVC070
     FM290900 23014KT P6SM BKN100=



000
FTUS43 KABR 281500 AAC
TAFABR
TAF AMD
KABR 281559Z 2816/2912 17015KT P6SM SKC
     FM281800 17020G27KT P6SM SKC
     FM290200 19015KT P6SM -SHRA OVC070
     FM290700 25014KT P6SM BKN100=



000
FTUS43 KABR 281500 AAD
TAFPIR
TAF AMD
KPIR 281541Z 2816/2912 12014KT P6SM FEW005
     FM281700 14018G23KT P6SM SKC
     FM290000 18015KT P6SM BKN100
     FM290600 29020G30KT P6SM BKN100
     FM290900 30033G44KT P6SM BKN030=



000
FTUS43 KABR 281500 AAD
TAFPIR
TAF AMD
KPIR 281541Z 2816/2912 12014KT P6SM FEW005
     FM281700 14018G23KT P6SM SKC
     FM290000 18015KT P6SM BKN100
     FM290600 29020G30KT P6SM BKN100
     FM290900 30033G44KT P6SM BKN030=



000
FTUS43 KABR 281500 AAC
TAFATY
TAF AMD
KATY 281513Z 2815/2912 16012KT P6SM BKN009
     FM281630 17014KT P6SM SCT009
     FM281800 18023G33KT P6SM SKC
     FM290500 19017KT P6SM -SHRA OVC070
     FM290900 23014KT P6SM BKN100=



000
FTUS43 KABR 281500 AAC
TAFATY
TAF AMD
KATY 281513Z 2815/2912 16012KT P6SM BKN009
     FM281630 17014KT P6SM SCT009
     FM281800 18023G33KT P6SM SKC
     FM290500 19017KT P6SM -SHRA OVC070
     FM290900 23014KT P6SM BKN100=



000
FTUS43 KABR 281500 AAB
TAFABR
TAF AMD
KABR 281503Z 2815/2912 18013KT P6SM SCT030
     FM281600 17020G27KT P6SM SKC
     FM290200 19015KT P6SM -SHRA OVC070
     FM290700 25014KT P6SM BKN100=



000
FTUS43 KABR 281500 AAB
TAFABR
TAF AMD
KABR 281503Z 2815/2912 18013KT P6SM SCT030
     FM281600 17020G27KT P6SM SKC
     FM290200 19015KT P6SM -SHRA OVC070
     FM290700 25014KT P6SM BKN100=



000
FTUS43 KABR 281400 AAC
TAFPIR
TAF AMD
KPIR 281450Z 2815/2912 12012KT P6SM FEW005
     FM281540 15018G25KT P6SM SKC
     FM290000 18015KT P6SM BKN100
     FM290600 29020G30KT P6SM BKN100
     FM290900 30033G44KT P6SM BKN030=



000
FTUS43 KABR 281400 AAC
TAFPIR
TAF AMD
KPIR 281450Z 2815/2912 12012KT P6SM FEW005
     FM281540 15018G25KT P6SM SKC
     FM290000 18015KT P6SM BKN100
     FM290600 29020G30KT P6SM BKN100
     FM290900 30033G44KT P6SM BKN030=



000
FTUS43 KABR 281400 AAB
TAFATY
TAF AMD
KATY 281432Z 2815/2912 16011G16KT P6SM BKN009
     FM281530 17014KT P6SM SKC
     FM281800 18023G33KT P6SM SKC
     FM290500 19017KT P6SM -SHRA OVC070
     FM290900 23014KT P6SM BKN100=



000
FTUS43 KABR 281400 AAB
TAFATY
TAF AMD
KATY 281432Z 2815/2912 16011G16KT P6SM BKN009
     FM281530 17014KT P6SM SKC
     FM281800 18023G33KT P6SM SKC
     FM290500 19017KT P6SM -SHRA OVC070
     FM290900 23014KT P6SM BKN100=



000
FTUS43 KABR 281400 AAB
TAFPIR
TAF AMD
KPIR 281429Z 2814/2912 12011KT 5SM BR BKN005
     FM281530 15018G25KT P6SM SKC
     FM290000 18015KT P6SM BKN100
     FM290600 29020G30KT P6SM BKN100
     FM290900 30033G44KT P6SM BKN030=



000
FTUS43 KABR 281400 AAA
TAFPIR
TAF AMD
KPIR 281404Z 2814/2912 12010KT 5SM BR FEW004
     FM281500 15018G25KT P6SM SKC
     FM290000 18015KT P6SM BKN100
     FM290600 29020G30KT P6SM BKN100
     FM290900 30033G44KT P6SM BKN030=



000
FTUS43 KABR 281300 AAA
TAFATY
TAF AMD
KATY 281349Z 2814/2912 16011G16KT P6SM BKN009
     FM281500 17014KT P6SM SKC
     FM281800 18023G33KT P6SM SKC
     FM290500 19017KT P6SM -SHRA OVC070
     FM290900 23014KT P6SM BKN100=



000
FTUS43 KABR 281300 AAA
TAFABR
TAF AMD
KABR 281340Z 2814/2912 15013KT P6SM OVC026
      TEMPO 2814/2816 SCT028
     FM281600 17020G27KT P6SM SKC
     FM290200 19015KT P6SM -SHRA OVC070
     FM290700 25014KT P6SM BKN100=



000
FTUS43 KABR 281100
TAFABR
TAF
KABR 281140Z 2812/2912 16010KT P6SM OVC030
      TEMPO 2812/2815 OVC035
     FM281500 17017KT P6SM SKC
     FM281700 18023G33KT P6SM SKC
     FM290200 19015KT P6SM -SHRA OVC070
     FM290700 25014KT P6SM BKN100=



000
FTUS43 KABR 281100
TAFPIR
TAF
KPIR 281140Z 2812/2912 14010KT P6SM SKC
      TEMPO 2812/2814 5SM BR
     FM281600 16018G25KT P6SM SKC
     FM290000 18015KT P6SM BKN100
     FM290600 29020G30KT P6SM BKN100
     FM290900 30033G44KT P6SM BKN030=



000
FTUS43 KABR 281100
TAFATY
TAF
KATY 281140Z 2812/2912 16011KT P6SM OVC035
     FM281400 17014KT P6SM SKC
     FM281800 18023G33KT P6SM SKC
     FM290500 19017KT P6SM -SHRA OVC070
     FM290900 23014KT P6SM BKN100=



000
FTUS43 KABR 281100
TAFABR
TAF
KABR 281140Z 2812/2912 16010KT P6SM OVC030
      TEMPO 2812/2815 OVC035
     FM281500 17017KT P6SM SKC
     FM281700 18023G33KT P6SM SKC
     FM290200 19015KT P6SM -SHRA OVC070
     FM290700 25014KT P6SM BKN100=



000
FTUS43 KABR 281100
TAFMBG
TAF
KMBG 281140Z 2812/2912 13010KT P6SM SKC
     FM281600 17018G27KT P6SM SKC
     FM282300 19015KT P6SM -SHRA OVC070
     FM290500 29020G30KT P6SM BKN100
     FM290800 31033G44KT P6SM BKN030=



000
FTUS43 KABR 281100
TAFPIR
TAF
KPIR 281140Z 2812/2912 14010KT P6SM SKC
      TEMPO 2812/2814 5SM BR
     FM281600 16018G25KT P6SM SKC
     FM290000 18015KT P6SM BKN100
     FM290600 29020G30KT P6SM BKN100
     FM290900 30033G44KT P6SM BKN030=



000
FTUS43 KABR 281100
TAFATY
TAF
KATY 281140Z 2812/2912 16011KT P6SM OVC035
     FM281400 17014KT P6SM SKC
     FM281800 18023G33KT P6SM SKC
     FM290500 19017KT P6SM -SHRA OVC070
     FM290900 23014KT P6SM BKN100=



000
FTUS43 KABR 281100
TAFMBG
TAF
KMBG 281140Z 2812/2912 13010KT P6SM SKC
     FM281600 17018G27KT P6SM SKC
     FM282300 19015KT P6SM -SHRA OVC070
     FM290500 29020G30KT P6SM BKN100
     FM290800 31033G44KT P6SM BKN030=



    US Dept of Commerce
    National Oceanic and Atmospheric Administration
    National Weather Service
    1325 East West Highway
    Silver Spring, MD 20910
    Page Author: NWS Internet Services Team
Disclaimer
Information Quality
Credits
Glossary
Privacy Policy
Freedom of Information Act (FOIA)
About Us
Career Opportunities